createdAt,value
2022-12-18T00:00:42.533Z,0.59
2022-12-18T00:05:34.324Z,0.56
2022-12-18T00:10:26.003Z,0.52
2022-12-18T00:15:17.847Z,0.46
2022-12-18T00:20:10.294Z,0.41
2022-12-18T00:25:02.108Z,0.34
2022-12-18T00:29:53.764Z,0.24
2022-12-18T00:34:45.396Z,0.15
2022-12-18T00:39:37.051Z,0.10
2022-12-18T00:44:28.653Z,0.04
2022-12-18T00:49:21.228Z,-0.03
2022-12-18T00:54:13.073Z,-0.11
2022-12-18T00:59:05.266Z,-0.17
2022-12-18T01:03:58.260Z,-0.24
2022-12-18T01:08:49.856Z,-0.29
2022-12-18T01:13:41.961Z,-0.35
2022-12-18T01:18:34.092Z,-0.41
2022-12-18T01:23:26.171Z,-0.45
2022-12-18T01:28:18.035Z,-0.48
2022-12-18T01:33:09.635Z,-0.49
2022-12-18T01:38:01.343Z,-0.49
2022-12-18T01:42:53.755Z,-0.51
2022-12-18T01:47:56.215Z,-0.51
2022-12-18T01:52:51.040Z,-0.52
2022-12-18T01:57:43.255Z,-0.56
2022-12-18T02:02:35.056Z,-0.60
2022-12-18T02:07:41.633Z,-0.63
2022-12-18T02:12:57.708Z,-0.72
2022-12-18T02:17:55.871Z,-0.79
2022-12-18T02:23:19.891Z,-0.86
2022-12-18T02:28:16.431Z,-0.94
2022-12-18T02:33:11.033Z,-0.97
2022-12-18T02:38:05.158Z,-1.00
2022-12-18T02:43:03.085Z,-1.05
2022-12-18T02:47:54.936Z,-1.11
2022-12-18T02:52:52.430Z,-1.14
2022-12-18T02:57:51.728Z,-1.17
2022-12-18T03:02:47.453Z,-1.21
2022-12-18T03:07:57.932Z,-1.23
2022-12-18T03:12:56.408Z,-1.26
2022-12-18T03:17:56.072Z,-1.29
2022-12-18T03:22:52.991Z,-1.33
2022-12-18T03:27:50.074Z,-1.37
2022-12-18T03:32:49.608Z,-1.40
2022-12-18T03:37:41.384Z,-1.42
2022-12-18T03:42:50.516Z,-1.47
2022-12-18T03:47:59.287Z,-1.46
2022-12-18T03:53:09.989Z,-1.47
2022-12-18T03:58:04.624Z,-1.46
2022-12-18T04:02:59.271Z,-1.44
2022-12-18T04:07:52.983Z,-1.45
2022-12-18T04:12:45.291Z,-1.46
2022-12-18T04:17:37.025Z,-1.46
2022-12-18T04:22:28.963Z,-1.48
2022-12-18T04:27:20.607Z,-1.51
2022-12-18T04:32:12.410Z,-1.52
2022-12-18T04:37:04.090Z,-1.51
2022-12-18T04:41:55.767Z,-1.50
2022-12-18T04:46:47.734Z,-1.46
2022-12-18T04:51:40.186Z,-1.45
2022-12-18T04:56:33.162Z,-1.44
2022-12-18T05:01:34.795Z,-1.45
2022-12-18T05:06:26.908Z,-1.43
2022-12-18T05:11:18.947Z,-1.43
2022-12-18T05:16:11.254Z,-1.45
2022-12-18T05:21:03.833Z,-1.49
2022-12-18T05:25:58.249Z,-1.49
2022-12-18T05:30:54.030Z,-1.49
2022-12-18T05:35:45.996Z,-1.47
2022-12-18T05:40:37.865Z,-1.45
2022-12-18T05:45:29.440Z,-1.41
2022-12-18T05:50:20.983Z,-1.39
2022-12-18T05:55:12.606Z,-1.36
2022-12-18T06:00:05.331Z,-1.34
2022-12-18T06:04:56.964Z,-1.35
2022-12-18T06:09:48.560Z,-1.36
2022-12-18T06:14:40.168Z,-1.38
2022-12-18T06:19:31.708Z,-1.38
2022-12-18T06:24:23.268Z,-1.39
2022-12-18T06:29:14.906Z,-1.37
2022-12-18T06:34:06.609Z,-1.37
2022-12-18T06:38:58.688Z,-1.34
2022-12-18T06:43:50.523Z,-1.31
2022-12-18T06:48:42.480Z,-1.30
2022-12-18T06:53:34.506Z,-1.29
2022-12-18T06:58:26.112Z,-1.27
2022-12-18T07:03:17.763Z,-1.26
2022-12-18T07:08:09.370Z,-1.26
2022-12-18T07:13:01.787Z,-1.26
2022-12-18T07:17:53.512Z,-1.26
2022-12-18T07:22:45.075Z,-1.24
2022-12-18T07:27:36.756Z,-1.22
2022-12-18T07:32:28.427Z,-1.20
2022-12-18T07:37:20.198Z,-1.20
2022-12-18T07:42:30.799Z,-1.20
2022-12-18T07:47:22.449Z,-1.20
2022-12-18T07:52:14.047Z,-1.19
2022-12-18T07:57:16.447Z,-1.18
2022-12-18T08:02:17.456Z,-1.18
2022-12-18T08:07:09.224Z,-1.18
2022-12-18T08:12:00.880Z,-1.19
2022-12-18T08:16:52.891Z,-1.18
2022-12-18T08:21:44.678Z,-1.18
2022-12-18T08:26:36.270Z,-1.17
2022-12-18T08:31:29.850Z,-1.16
2022-12-18T08:36:22.532Z,-1.14
2022-12-18T08:41:16.775Z,-1.13
2022-12-18T08:46:08.793Z,-1.11
2022-12-18T08:51:00.918Z,-1.12
2022-12-18T08:55:53.074Z,-1.13
2022-12-18T09:00:44.715Z,-1.13
2022-12-18T09:05:36.555Z,-1.09
2022-12-18T09:10:28.171Z,-1.09
2022-12-18T09:15:19.921Z,-1.08
2022-12-18T09:20:12.781Z,-1.06
2022-12-18T09:25:05.335Z,-1.02
2022-12-18T09:29:56.967Z,-0.99
2022-12-18T09:34:48.637Z,-0.99
2022-12-18T09:39:41.178Z,-0.89
2022-12-18T09:44:47.572Z,-0.87
2022-12-18T09:49:45.540Z,-0.84
2022-12-18T09:54:40.964Z,-0.82
2022-12-18T09:59:40.250Z,-0.75
2022-12-18T10:04:33.372Z,-0.70
2022-12-18T10:09:38.615Z,-0.66
2022-12-18T10:15:05.710Z,-0.57
2022-12-18T10:20:07.755Z,-0.49
2022-12-18T10:25:06.869Z,-0.44
2022-12-18T10:29:59.143Z,-0.38
2022-12-18T10:35:00.190Z,-0.31
2022-12-18T10:40:10.487Z,-0.25
2022-12-18T10:45:09.357Z,-0.19
2022-12-18T10:50:01.065Z,-0.14
2022-12-18T10:55:05.131Z,-0.08
2022-12-18T10:59:59.071Z,-0.03
2022-12-18T11:04:52.857Z,0.02
2022-12-18T11:09:44.538Z,0.08
2022-12-18T11:14:57.099Z,0.16
2022-12-18T11:19:57.124Z,0.22
2022-12-18T11:25:30.211Z,0.29
2022-12-18T11:30:22.290Z,0.36
2022-12-18T11:35:18.951Z,0.41
2022-12-18T11:40:19.693Z,0.44
2022-12-18T11:45:14.220Z,0.48
2022-12-18T11:50:17.671Z,0.49
2022-12-18T11:55:44.813Z,0.51
2022-12-18T12:00:49.572Z,0.50
2022-12-18T12:06:05.873Z,0.50
2022-12-18T12:11:06.064Z,0.52
2022-12-18T12:16:16.532Z,0.55
2022-12-18T12:21:14.447Z,0.58
2022-12-18T12:26:13.089Z,0.61
2022-12-18T12:31:04.836Z,0.60
2022-12-18T12:36:01.979Z,0.59
2022-12-18T12:41:33.875Z,0.58
2022-12-18T12:46:27.556Z,0.56
2022-12-18T12:51:29.294Z,0.56
2022-12-18T12:56:22.728Z,0.57
2022-12-18T13:01:24.285Z,0.57
2022-12-18T13:06:44.986Z,0.54
2022-12-18T13:12:00.003Z,0.52
2022-12-18T13:16:52.607Z,0.51
2022-12-18T13:21:54.728Z,0.51
2022-12-18T13:26:46.843Z,0.52
2022-12-18T13:31:42.359Z,0.53
2022-12-18T13:36:35.301Z,0.53
2022-12-18T13:41:30.179Z,0.56
2022-12-18T13:46:42.984Z,0.56
2022-12-18T13:51:35.874Z,0.55
2022-12-18T13:56:30.763Z,0.57
2022-12-18T14:01:24.252Z,0.56
2022-12-18T14:06:17.666Z,0.54
2022-12-18T14:11:22.091Z,0.55
2022-12-18T14:16:17.744Z,0.57
2022-12-18T14:21:19.157Z,0.60
2022-12-18T14:26:30.241Z,0.62
2022-12-18T14:31:24.918Z,0.63
2022-12-18T14:36:24.579Z,0.66
2022-12-18T14:41:18.409Z,0.67
2022-12-18T14:46:39.527Z,0.69
2022-12-18T14:51:34.346Z,0.71
2022-12-18T14:56:27.575Z,0.76
2022-12-18T15:01:26.295Z,0.80
2022-12-18T15:06:25.775Z,0.85
2022-12-18T15:11:28.173Z,0.92
2022-12-18T15:16:19.962Z,0.98
2022-12-18T15:21:17.432Z,1.02
2022-12-18T15:26:11.496Z,1.07
2022-12-18T15:31:10.163Z,1.14
2022-12-18T15:36:11.040Z,1.21
2022-12-18T15:41:03.232Z,1.30
2022-12-18T15:45:54.921Z,1.34
2022-12-18T15:50:46.972Z,1.41
2022-12-18T15:56:00.969Z,1.47
2022-12-18T16:01:00.208Z,1.54
2022-12-18T16:05:51.810Z,1.60
2022-12-18T16:10:43.618Z,1.65
2022-12-18T16:15:35.291Z,1.71
2022-12-18T16:20:27.064Z,1.77
2022-12-18T16:25:20.545Z,1.84
2022-12-18T16:30:16.937Z,1.90
2022-12-18T16:35:14.853Z,1.96
2022-12-18T16:40:09.904Z,2.03
2022-12-18T16:45:01.526Z,2.08
2022-12-18T16:49:53.393Z,2.14
2022-12-18T16:54:45.079Z,2.22
2022-12-18T16:59:36.927Z,2.28
2022-12-18T17:04:28.671Z,2.35
2022-12-18T17:09:25.568Z,2.40
2022-12-18T17:14:20.376Z,2.46
2022-12-18T17:19:17.092Z,2.52
2022-12-18T17:24:09.606Z,2.56
2022-12-18T17:29:01.596Z,2.62
2022-12-18T17:33:53.772Z,2.71
2022-12-18T17:38:54.291Z,2.78
2022-12-18T17:43:51.890Z,2.88
2022-12-18T17:48:43.635Z,2.94
2022-12-18T17:53:35.196Z,3.01
2022-12-18T17:58:30.584Z,3.10
2022-12-18T18:03:22.493Z,3.15
2022-12-18T18:08:14.313Z,3.23
2022-12-18T18:13:26.604Z,3.31
2022-12-18T18:18:19.572Z,3.43
2022-12-18T18:23:13.607Z,3.56
2022-12-18T18:28:05.455Z,3.66
2022-12-18T18:32:57.055Z,3.74
2022-12-18T18:37:49.344Z,3.90
2022-12-18T18:42:43.019Z,3.99
2022-12-18T18:47:34.657Z,4.06
2022-12-18T18:52:26.279Z,4.19
2022-12-18T18:57:20.705Z,4.33
2022-12-18T19:02:14.893Z,4.45
2022-12-18T19:07:07.808Z,4.62
2022-12-18T19:12:18.432Z,4.76
2022-12-18T19:17:10.375Z,4.87
2022-12-18T19:22:02.173Z,4.98
2022-12-18T19:26:54.167Z,5.14
2022-12-18T19:31:50.158Z,5.20
2022-12-18T19:36:42.136Z,5.27
2022-12-18T19:41:34.027Z,5.34
2022-12-18T19:46:26.868Z,5.41
2022-12-18T19:51:24.950Z,5.52
2022-12-18T19:56:19.349Z,5.64
2022-12-18T20:01:12.753Z,5.73
2022-12-18T20:06:26.814Z,5.80
2022-12-18T20:11:18.624Z,5.89
2022-12-18T20:16:10.838Z,5.97
2022-12-18T20:21:03.429Z,6.02
2022-12-18T20:25:56.121Z,6.11
2022-12-18T20:30:48.037Z,6.16
2022-12-18T20:35:39.667Z,6.21
2022-12-18T20:40:32.073Z,6.30
2022-12-18T20:45:23.795Z,6.35
2022-12-18T20:50:15.458Z,6.44
2022-12-18T20:55:07.589Z,6.52
2022-12-18T20:59:59.234Z,6.58
2022-12-18T21:04:50.848Z,6.61
2022-12-18T21:09:42.476Z,6.66
2022-12-18T21:14:34.420Z,6.70
2022-12-18T21:19:27.488Z,6.75
2022-12-18T21:24:19.912Z,6.80
2022-12-18T21:29:17.544Z,6.82
2022-12-18T21:34:14.863Z,6.89
2022-12-18T21:39:06.529Z,6.95
2022-12-18T21:44:07.445Z,6.99
2022-12-18T21:48:59.154Z,7.10
2022-12-18T21:53:50.842Z,7.17
2022-12-18T21:58:55.378Z,7.23
2022-12-18T22:03:49.140Z,7.27
2022-12-18T22:08:43.618Z,7.33
2022-12-18T22:13:35.620Z,7.38
2022-12-18T22:18:27.488Z,7.44
2022-12-18T22:23:19.125Z,7.48
2022-12-18T22:28:29.624Z,7.55
2022-12-18T22:33:21.251Z,7.61
2022-12-18T22:38:12.887Z,7.68
2022-12-18T22:43:04.574Z,7.75
2022-12-18T22:47:56.419Z,7.80
2022-12-18T22:52:48.025Z,7.84
2022-12-18T22:57:40.642Z,7.88
2022-12-18T23:02:37.821Z,7.96
2022-12-18T23:07:29.625Z,8.00
2022-12-18T23:12:21.439Z,8.06
2022-12-18T23:17:13.533Z,8.11
2022-12-18T23:22:11.371Z,8.16
2022-12-18T23:27:03.319Z,8.22
2022-12-18T23:31:58.400Z,8.25
2022-12-18T23:36:53.270Z,8.28
2022-12-18T23:41:47.652Z,8.32
2022-12-18T23:46:39.536Z,8.38
2022-12-18T23:51:32.086Z,8.43
2022-12-18T23:56:26.765Z,8.47
